Index of /wp-content/uploads/2021/11

[ICO]NameLast modifiedSizeDescription

[PARENTDIR]Parent Directory  -  
[IMG]mem-engagement-50x50.jpg2023-06-07 14:49 2.0K 
[IMG]logo-on-white-50x50.jpg2023-06-07 14:49 2.0K 
[IMG]logo-on-white-80x80.jpg2023-06-07 14:49 3.2K 
[IMG]mem-engagement-80x80.jpg2023-06-07 14:49 3.3K 
[IMG]logo-on-white-100x100.jpg2023-06-07 16:58 4.3K 
[IMG]mem-engagement-100x100.jpg2023-06-07 16:58 4.5K 
[IMG]logo-on-white-139x89.jpg2023-06-07 14:49 4.6K 
[IMG]call-for-entries-01-50x50.png2023-06-07 14:49 4.9K 
[IMG]mem-engagement-139x89.jpg2023-06-07 14:49 5.2K 
[IMG]logo-on-white-150x150.jpg2023-06-07 14:49 7.2K 
[IMG]mem-engagement-150x150.jpg2023-06-07 14:49 8.7K 
[IMG]call-for-entries-01-80x80.png2023-06-07 14:49 10K 
[IMG]logo-on-white-255x170.jpg2023-06-07 14:49 10K 
[IMG]logo-on-white-278x178.jpg2023-06-07 14:49 11K 
[IMG]logo-on-white-300x200.jpg2023-06-07 14:49 13K 
[IMG]logo-on-white-255x255.jpg2023-06-07 14:49 14K 
[IMG]logo-on-white-263x263.jpg2023-06-07 14:49 14K 
[IMG]call-for-entries-01-100x100.png2023-06-07 16:58 15K 
[IMG]mem-engagement-278x178.jpg2023-06-07 14:49 15K 
[IMG]logo-on-white-300x300.jpg2023-06-07 16:58 16K 
[IMG]logo-on-white-277x337.jpg2023-06-07 14:49 17K 
[IMG]logo-on-white-409x258.jpg2023-06-07 14:49 18K 
[IMG]call-for-entries-01-139x89.png2023-06-07 14:49 19K 
[IMG]mem-engagement-255x255.jpg2023-06-07 14:49 19K 
[IMG]mem-engagement-263x263.jpg2023-06-07 14:49 20K 
[IMG]mem-engagement-244x300.jpg2023-06-07 14:49 21K 
[IMG]mem-engagement-255x314.jpg2023-06-07 14:49 23K 
[IMG]mem-engagement-300x300.jpg2023-06-07 16:58 25K 
[IMG]mem-engagement-409x258.jpg2023-06-07 14:49 26K 
[IMG]mem-engagement-277x337.jpg2023-06-07 14:49 27K 
[IMG]logo-on-white-600x400.jpg2023-06-07 16:58 29K 
[IMG]call-for-entries-01-150x150.png2023-06-07 14:49 30K 
[IMG]logo-on-white-526x526.jpg2023-06-07 14:49 32K 
[IMG]logo-on-white-554x674.jpg2023-06-07 14:49 37K 
[IMG]logo-on-white-768x512.jpg2023-06-07 14:49 40K 
[IMG]logo-on-white-818x516.jpg2023-06-07 14:49 44K 
[IMG]call-for-entries-01-255x136.png2023-06-07 14:49 48K 
[IMG]logo-on-white-1024x683.jpg2023-06-07 14:49 57K 
[IMG]mem-engagement-526x526.jpg2023-06-07 14:49 58K 
[IMG]call-for-entries-01-278x178.png2023-06-07 14:49 60K 
[IMG]call-for-entries-01-300x160.png2023-06-07 14:49 62K 
[IMG]mem-engagement-650x516.jpg2023-06-07 14:49 71K 
[IMG]mem-engagement-554x674.jpg2023-06-07 14:49 73K 
[IMG]call-for-entries-01-255x255.png2023-06-07 14:49 74K 
[IMG]call-for-entries-01-263x263.png2023-06-07 14:49 78K 
[IMG]mem-engagement-600x738.jpg2023-06-07 16:58 81K 
[IMG]call-for-entries-01-300x300.png2023-06-07 16:58 82K 
[   ]Retired-Members-CPD-Event-Discount-Policy.pdf2023-06-07 14:49 94K 
[   ]The-Annual-Leadership-Convention-Programme-Final.pdf2023-06-07 14:49 100K 
[IMG]call-for-entries-01-277x337.png2023-06-07 14:49 101K 
[   ]Audit-staff-training-2021-Program.pdf2023-06-07 14:49 111K 
[IMG]call-for-entries-01-409x258.png2023-06-07 14:49 114K 
[   ]Program-UFAA_ICPAK-Practitioners-Training.pdf2023-06-07 14:49 127K 
[   ]Financial-Services-Sector-Virtual-Seminar-Programme.pdf2023-06-07 14:49 136K 
[IMG]mem-engagement.jpg2023-06-07 14:49 167K 
[IMG]call-for-entries-01-600x320.png2023-06-07 16:58 167K 
[IMG]call-for-entries-01-554x552.png2023-06-07 14:49 168K 
[   ]NAVIGATE-THE-ECONOMIC-HEADWING-AND-REESILINCE-WHICH-WAY-1-IKIARA.pdf2023-06-07 14:49 172K 
[   ]Developing-and-deployig-an-audit-risk-model.-ppt-CPA-Andrew-Bulemi.pdf2023-06-07 14:49 196K 
[   ]03112021_IFRS-9_Overview_OFO_v2-Ferdinard.pdf2023-06-07 14:49 244K 
[IMG]call-for-entries-01-526x526.png2023-06-07 14:49 247K 
[   ]8TH-ANNUAL-TAX-CONVENTION-By-EVANS-KAMAU.pdf2023-06-07 14:49 253K 
[IMG]call-for-entries-01-768x410.png2023-06-07 14:49 298K 
[   ]Job-Advert-for-Audit-Associates-Nov-2021-1.pdf2023-06-07 14:49 315K 
[   ]Job-Advert-for-Audit-Associates-Nov-2021.pdf2023-06-07 14:49 315K 
[   ]Inventory-Controller.pdf2023-06-07 14:49 320K 
[IMG]call-for-entries-01.png2023-06-07 14:49 323K 
[IMG]call-for-entries-01-818x516.png2023-06-07 14:49 366K 
[   ]Job-Advert-for-Tax-Associate-Nov-2021.pdf2023-06-07 14:49 401K 
[   ]FINAL-DGS-ICPAK-PRESENTATION-KENNETH.pdf2023-06-07 14:49 405K 
[   ]Carol-Cherotich-ICPAK-Caroline.pdf2023-06-07 14:49 445K 
[   ]ICPAK_Intellectual-Property-Risk-Management_Tom-Nyagare.pdf2023-06-07 14:49 462K 
[IMG]call-for-entries-01-1024x547.png2023-06-07 14:49 464K 
[   ]ICPAK-Presentation-by-Prof.-Peter-M.-Lewa.pdf2023-06-07 14:49 498K 
[   ]Executing-Audits-in-the-Current-Environment_CPA-Denis-Mugisha.pdf2023-06-07 14:49 522K 
[   ]Essential-leadership-skills-Practises.-ICPAK.pdf2023-06-07 14:49 527K 
[IMG]logo-on-white.jpg2023-06-07 14:49 615K 
[   ]38th-Annual-ICPAK-Seminar-CPA-NANCY-OAG.pdf2023-06-07 14:49 629K 
[   ]ICPAK-PPT-Presenters-Template-Sharon-Oluoch.pdf2023-06-07 14:49 657K 
[   ]HADDA-Audit-TOR-Dec-20212-1.pdf2023-06-07 14:49 694K 
[   ]HADDA-Audit-TOR-Dec-20212.pdf2023-06-07 14:49 694K 
[   ]ecm-finance-perspectives-experiences-and-recommendations-on-county-taxation.pdf2023-06-07 14:49 734K 
[   ]Day-One-V2.pdf2023-06-07 14:49 752K 
[   ]ICPAK-Leadership-Conference-JKL.pdf2023-06-07 14:49 762K 
[   ]ICPAK-Financial-Services-Seminar-CMA-Presentation-Luke-Ombara.pdf2023-06-07 14:49 821K 
[   ]DG-Presentation_ICPAK-Annual-Seminar_November-17th-Nov-2021_Nov15_s-SHEILA.pdf2023-06-07 14:49 836K 
[   ]A-Leader-Vs-a-Boss-David-Kairo.pdf2023-06-07 14:49 847K 
[   ]ICPAK-presentation-Tax-Exemptions-and-Incentives.pdf2023-06-07 14:49 869K 
[   ]ICPAK-Executive-Seminar-Session-7-Overview-of-Policies-Nov-2021.pdf2023-06-07 14:49 885K 
[   ]Day-Two-V2.pdf2023-06-07 14:49 888K 
[   ]ICPAK-Financial-Services-Seminar-Nov-2021-V2-Moses.pdf2023-06-07 14:49 914K 
[   ]EKO-ICPAK-Presentation-Foreign-Direct-Investment-24.10.20211.pdf2023-06-07 14:49 945K 
[   ]Status-of-Kenya-Vision-2030-Final-Presentation.pdf2023-06-07 14:49 969K 
[   ]Identifying-and-understanding-sources-audit-and-business-risks-and-the-emerging-risks-due-to-COVID-19-CPA-Sam-Okari.pdf2023-06-07 14:49 1.2M 
[   ]ICPAK-PPT-Business-Intelligence-David.pdf2023-06-07 14:49 1.3M 
[   ]ICPA-KRA-Presentation-DR-OMAR.pdf2023-06-07 14:49 1.3M 
[   ]BETH-MWOBOBia-TAX-INFORMATION-EXCHANGE-AND-CAPACITY-BUILDING.pdf2023-06-07 14:49 1.4M 
[   ]FINAL-ICPAK-PPT-2021SHILLAH-NOVEMBER-MHPSS-1.pdf2023-06-07 14:49 1.5M 
[   ]ICPAK-FSS-Ezekiel-Macharia-3-Nov-2021.pdf2023-06-07 14:49 1.8M 
[   ]2021-Tax-Changes-and-other-Tax-Developments.pdf2023-06-07 14:49 1.8M 
[   ]Future-Growth-Strategies_ICPAK_Nov-21.pdf2023-06-07 14:49 1.9M 
[   ]ICPAK-Self-Management-Skills-Nov-2021-Karina.pdf2023-06-07 14:49 2.3M 
[   ]Amref-ICPAK-Presentation-1.pdf2023-06-07 14:49 2.4M 
[   ]Amref-ICPAK-Presentation.pdf2023-06-07 14:49 2.4M 
[   ]ICPAK-Book-2e_compressed-Final-8-v.0-min.pdf2023-06-07 14:49 2.5M 
[   ]ICPAK-4-Nov-2021-Gilbert-Ouko.pdf2023-06-07 14:49 3.8M 
[   ]ICPAK-Book-2e_compressed-Final-8-v.0.pdf2023-06-07 14:49 4.3M 
[   ]Konza-Technopolis-Presentation-ICPAK-20211116.pdf2023-06-07 14:49 5.5M 

Apache/2.4.58 (Ubuntu) Server at www.icpak.com Port 80